createdAt,value
2017-12-15T00:00:14.667Z,1.09
2017-12-15T00:02:41.017Z,1.08
2017-12-15T00:05:07.277Z,1.09
2017-12-15T00:07:33.495Z,1.08
2017-12-15T00:09:59.562Z,1.07
2017-12-15T00:12:25.585Z,1.09
2017-12-15T00:14:51.642Z,1.10
2017-12-15T00:17:18.707Z,1.08
2017-12-15T00:19:44.711Z,1.03
2017-12-15T00:22:10.813Z,1.00
2017-12-15T00:24:36.965Z,0.98
2017-12-15T00:27:03.083Z,0.97
2017-12-15T00:29:29.175Z,0.98
2017-12-15T00:31:55.314Z,0.99
2017-12-15T00:34:21.362Z,0.99
2017-12-15T00:36:47.414Z,0.99
2017-12-15T00:39:13.524Z,0.98
2017-12-15T00:41:39.638Z,0.97
2017-12-15T00:44:05.702Z,0.95
2017-12-15T00:46:31.963Z,0.93
2017-12-15T00:48:58.070Z,0.92
2017-12-15T00:51:24.146Z,0.90
2017-12-15T00:53:50.353Z,0.90
2017-12-15T00:56:16.482Z,0.91
2017-12-15T00:58:42.525Z,0.91
2017-12-15T01:01:08.534Z,0.91
2017-12-15T01:03:34.833Z,0.94
2017-12-15T01:06:00.898Z,0.96
2017-12-15T01:08:26.970Z,0.96
2017-12-15T01:10:53.015Z,0.97
2017-12-15T01:13:19.068Z,0.98
2017-12-15T01:15:45.140Z,0.97
2017-12-15T01:18:11.234Z,0.97
2017-12-15T01:20:37.279Z,0.95
2017-12-15T01:23:03.316Z,0.94
2017-12-15T01:25:29.482Z,0.94
2017-12-15T01:27:55.616Z,0.94
2017-12-15T01:30:21.732Z,0.96
2017-12-15T01:32:47.828Z,0.98
2017-12-15T01:35:13.884Z,0.99
2017-12-15T01:37:39.919Z,1.01
2017-12-15T01:40:06.018Z,0.99
2017-12-15T01:42:32.265Z,0.97
2017-12-15T01:44:58.318Z,0.95
2017-12-15T01:47:24.401Z,0.95
2017-12-15T01:49:50.424Z,0.96
2017-12-15T01:52:16.517Z,0.95
2017-12-15T01:54:42.541Z,0.94
2017-12-15T01:57:08.822Z,0.94
2017-12-15T01:59:35.615Z,0.94
2017-12-15T02:02:01.679Z,0.94
2017-12-15T02:04:27.827Z,0.96
2017-12-15T02:06:53.903Z,1.04
2017-12-15T02:09:19.978Z,1.20
2017-12-15T02:11:46.079Z,1.42
2017-12-15T02:14:12.228Z,1.60
2017-12-15T02:16:38.352Z,1.71
2017-12-15T02:19:04.465Z,1.84
2017-12-15T02:21:30.617Z,1.84
2017-12-15T02:23:57.003Z,1.83
2017-12-15T02:26:23.097Z,1.83
2017-12-15T02:28:49.275Z,1.78
2017-12-15T02:31:15.359Z,1.75
2017-12-15T02:33:41.361Z,1.70
2017-12-15T02:36:07.455Z,1.65
2017-12-15T02:38:33.601Z,1.63
2017-12-15T02:40:59.596Z,1.67
2017-12-15T02:43:25.656Z,1.68
2017-12-15T02:45:51.703Z,1.67
2017-12-15T02:48:17.851Z,1.65
2017-12-15T02:50:43.913Z,1.65
2017-12-15T02:53:10.106Z,1.63
2017-12-15T02:55:36.186Z,1.62
2017-12-15T02:58:02.348Z,1.63
2017-12-15T03:00:29.132Z,1.66
2017-12-15T03:02:55.291Z,1.70
2017-12-15T03:05:21.423Z,1.75
2017-12-15T03:07:47.577Z,1.82
2017-12-15T03:10:13.690Z,1.90
2017-12-15T03:12:39.864Z,1.99
2017-12-15T03:15:06.027Z,2.10
2017-12-15T03:17:32.059Z,2.13
2017-12-15T03:19:58.179Z,2.18
2017-12-15T03:22:24.227Z,2.22
2017-12-15T03:24:50.327Z,2.17
2017-12-15T03:27:16.527Z,2.23
2017-12-15T03:29:42.595Z,2.20
2017-12-15T03:32:08.761Z,2.19
2017-12-15T03:34:34.849Z,2.24
2017-12-15T03:37:00.980Z,2.23
2017-12-15T03:39:27.167Z,2.24
2017-12-15T03:41:53.334Z,2.23
2017-12-15T03:44:19.451Z,2.23
2017-12-15T03:46:45.585Z,2.26
2017-12-15T03:49:11.663Z,2.31
2017-12-15T03:51:37.722Z,2.33
2017-12-15T03:54:03.802Z,2.29
2017-12-15T03:56:29.960Z,2.27
2017-12-15T03:58:56.046Z,2.31
2017-12-15T04:01:22.124Z,2.29
2017-12-15T04:03:48.184Z,2.28
2017-12-15T04:06:14.335Z,2.25
2017-12-15T04:08:40.527Z,2.22
2017-12-15T04:11:06.636Z,2.20
2017-12-15T04:13:32.788Z,2.20
2017-12-15T04:15:58.838Z,2.18
2017-12-15T04:18:24.981Z,2.16
2017-12-15T04:20:51.129Z,2.12
2017-12-15T04:23:17.253Z,2.09
2017-12-15T04:25:43.277Z,2.06
2017-12-15T04:31:02.558Z,1.99
2017-12-15T04:33:28.707Z,1.93
2017-12-15T04:35:54.840Z,1.91
2017-12-15T04:38:20.921Z,1.89
2017-12-15T04:40:47.197Z,1.84
2017-12-15T04:43:13.303Z,1.81
2017-12-15T04:45:39.470Z,1.78
2017-12-15T04:48:05.781Z,1.74
2017-12-15T04:50:32.089Z,1.72
2017-12-15T04:52:58.391Z,1.67
2017-12-15T04:55:24.533Z,1.66
2017-12-15T04:57:50.718Z,1.64
2017-12-15T05:00:16.879Z,1.65
2017-12-15T05:02:42.904Z,1.66
2017-12-15T05:05:15.813Z,1.65
2017-12-15T05:07:42.008Z,1.66
2017-12-15T05:10:08.206Z,1.64
2017-12-15T05:12:34.300Z,1.63
2017-12-15T05:15:00.316Z,1.57
2017-12-15T05:17:26.411Z,1.63
2017-12-15T05:19:52.572Z,1.74
2017-12-15T05:22:18.798Z,1.86
2017-12-15T05:24:45.062Z,1.96
2017-12-15T05:27:11.264Z,2.04
2017-12-15T05:29:37.470Z,2.05
2017-12-15T05:32:03.712Z,2.01
2017-12-15T05:34:29.928Z,1.94
2017-12-15T05:36:57.174Z,1.88
2017-12-15T05:39:23.250Z,1.79
2017-12-15T05:41:49.479Z,1.69
2017-12-15T05:44:16.220Z,1.66
2017-12-15T05:46:42.430Z,1.61
2017-12-15T05:49:08.826Z,1.53
2017-12-15T05:51:34.980Z,1.43
2017-12-15T05:54:01.022Z,1.35
2017-12-15T05:56:27.177Z,1.32
2017-12-15T05:58:53.229Z,1.29
2017-12-15T06:01:19.273Z,1.27
2017-12-15T06:03:45.397Z,1.28
2017-12-15T06:06:11.735Z,1.25
2017-12-15T06:08:38.021Z,1.15
2017-12-15T06:11:04.189Z,1.06
2017-12-15T06:13:30.282Z,0.98
2017-12-15T06:15:56.425Z,0.93
2017-12-15T06:18:22.666Z,0.88
2017-12-15T06:20:48.787Z,0.79
2017-12-15T06:23:14.892Z,0.64
2017-12-15T06:25:41.182Z,0.49
2017-12-15T06:28:07.407Z,0.36
2017-12-15T06:30:33.646Z,0.28
2017-12-15T06:32:59.761Z,0.18
2017-12-15T06:35:25.951Z,0.17
2017-12-15T06:37:53.074Z,0.19
2017-12-15T06:40:20.892Z,0.28
2017-12-15T06:42:47.264Z,0.36
2017-12-15T06:45:13.476Z,0.44
2017-12-15T06:50:13.224Z,0.31
2017-12-15T06:52:39.528Z,0.21
2017-12-15T06:55:05.800Z,0.19
2017-12-15T06:57:32.360Z,0.23
2017-12-15T06:59:58.743Z,0.29
2017-12-15T07:02:24.870Z,0.40
2017-12-15T07:04:52.136Z,0.54
2017-12-15T07:07:18.437Z,0.75
2017-12-15T07:09:44.596Z,0.81
2017-12-15T07:12:10.738Z,0.79
2017-12-15T07:14:36.870Z,0.89
2017-12-15T07:17:03.030Z,0.99
2017-12-15T07:19:29.087Z,1.06
2017-12-15T07:21:55.475Z,1.03
2017-12-15T07:24:21.635Z,1.02
2017-12-15T07:26:48.191Z,1.04
2017-12-15T07:29:14.644Z,1.07
2017-12-15T07:31:41.283Z,1.15
2017-12-15T07:34:07.449Z,1.26
2017-12-15T07:36:33.521Z,1.34
2017-12-15T07:38:59.699Z,1.51
2017-12-15T07:41:25.885Z,1.65
2017-12-15T07:43:52.049Z,1.73
2017-12-15T07:46:18.236Z,1.86
2017-12-15T07:48:45.350Z,1.97
2017-12-15T07:51:11.560Z,2.15
2017-12-15T07:53:37.794Z,2.29
2017-12-15T07:56:03.913Z,2.39
2017-12-15T07:58:30.129Z,2.53
2017-12-15T08:00:56.204Z,2.67
2017-12-15T08:03:22.306Z,2.82
2017-12-15T08:05:48.466Z,2.89
2017-12-15T08:08:14.626Z,2.97
2017-12-15T08:10:40.776Z,3.04
2017-12-15T08:13:06.880Z,3.06
2017-12-15T08:15:33.166Z,3.05
2017-12-15T08:17:59.276Z,2.99
2017-12-15T08:20:25.493Z,3.01
2017-12-15T08:22:51.648Z,2.97
2017-12-15T08:25:17.778Z,2.96
2017-12-15T08:27:43.935Z,3.05
2017-12-15T08:30:10.085Z,3.19
2017-12-15T08:32:36.164Z,3.25
2017-12-15T08:35:02.383Z,3.27
2017-12-15T08:37:28.384Z,3.24
2017-12-15T08:39:54.496Z,3.24
2017-12-15T08:42:20.636Z,3.27
2017-12-15T08:44:46.835Z,3.36
2017-12-15T08:47:12.979Z,3.46
2017-12-15T08:49:39.294Z,3.46
2017-12-15T08:52:05.485Z,3.43
2017-12-15T08:54:31.639Z,3.46
2017-12-15T08:56:57.916Z,3.45
2017-12-15T08:59:24.077Z,3.46
2017-12-15T09:01:50.687Z,3.53
2017-12-15T09:04:22.595Z,3.53
2017-12-15T09:06:48.759Z,3.54
2017-12-15T09:09:14.823Z,3.70
2017-12-15T09:11:41.015Z,3.73
2017-12-15T09:14:07.950Z,3.79
2017-12-15T09:16:34.047Z,3.85
2017-12-15T09:19:00.317Z,3.97
2017-12-15T09:21:26.331Z,3.94
2017-12-15T09:23:52.653Z,3.88
2017-12-15T09:26:18.925Z,3.97
2017-12-15T09:28:45.115Z,4.19
2017-12-15T09:31:11.472Z,4.44
2017-12-15T09:33:37.963Z,4.47
2017-12-15T09:36:04.192Z,4.64
2017-12-15T09:38:30.491Z,4.78
2017-12-15T09:40:56.687Z,4.86
2017-12-15T09:43:22.912Z,4.90
2017-12-15T09:45:49.002Z,4.88
2017-12-15T09:48:15.167Z,4.86
2017-12-15T09:50:41.216Z,4.85
2017-12-15T09:53:07.352Z,4.92
2017-12-15T09:55:39.620Z,5.01
2017-12-15T09:58:05.898Z,5.00
2017-12-15T10:00:32.174Z,5.07
2017-12-15T10:02:58.442Z,5.19
2017-12-15T10:05:24.648Z,5.25
2017-12-15T10:07:50.811Z,5.35
2017-12-15T10:13:10.025Z,6.22
2017-12-15T10:15:36.710Z,6.67
2017-12-15T10:18:03.216Z,7.17
2017-12-15T10:20:29.521Z,7.25
2017-12-15T10:22:55.736Z,7.23
2017-12-15T10:25:22.193Z,7.02
2017-12-15T10:27:48.474Z,6.93
2017-12-15T10:30:14.963Z,6.75
2017-12-15T10:32:41.157Z,6.42
2017-12-15T10:35:07.595Z,6.17
2017-12-15T10:37:33.782Z,6.02
2017-12-15T10:39:59.976Z,6.06
2017-12-15T10:42:26.175Z,6.08
2017-12-15T10:44:52.709Z,6.14
2017-12-15T10:47:18.846Z,6.26
2017-12-15T10:49:45.237Z,6.43
2017-12-15T10:52:11.741Z,6.31
2017-12-15T10:54:38.032Z,6.25
2017-12-15T10:57:04.493Z,6.20
2017-12-15T10:59:30.801Z,6.15
2017-12-15T11:01:57.017Z,6.34
2017-12-15T11:04:23.358Z,6.56
2017-12-15T11:06:49.609Z,6.68
2017-12-15T11:09:15.910Z,6.74
2017-12-15T11:11:42.242Z,6.84
2017-12-15T11:14:09.202Z,6.88
2017-12-15T11:16:35.381Z,6.86
2017-12-15T11:19:01.718Z,6.80
2017-12-15T11:21:27.868Z,6.89
2017-12-15T11:23:54.112Z,6.90
2017-12-15T11:26:20.385Z,6.79
2017-12-15T11:28:46.442Z,6.86
2017-12-15T11:31:12.522Z,6.87
2017-12-15T11:33:38.791Z,7.01
2017-12-15T11:36:04.926Z,6.98
2017-12-15T11:38:31.139Z,7.08
2017-12-15T11:40:57.411Z,7.17
2017-12-15T11:43:23.729Z,7.50
2017-12-15T11:45:50.038Z,7.77
2017-12-15T11:48:17.151Z,7.97
2017-12-15T11:50:43.663Z,8.28
2017-12-15T11:53:10.020Z,8.54
2017-12-15T11:55:36.127Z,8.54
2017-12-15T11:58:02.335Z,8.80
2017-12-15T12:00:28.419Z,8.71
2017-12-15T12:02:54.684Z,8.52
2017-12-15T12:05:20.867Z,8.56
2017-12-15T12:07:47.224Z,8.49
2017-12-15T12:10:13.356Z,8.39
2017-12-15T12:12:39.655Z,8.15
2017-12-15T12:15:05.945Z,7.88
2017-12-15T12:17:32.025Z,7.51
2017-12-15T12:19:58.137Z,7.37
2017-12-15T12:22:24.268Z,7.34
2017-12-15T12:24:50.508Z,7.38
2017-12-15T12:27:16.580Z,7.40
2017-12-15T12:29:43.379Z,7.32
2017-12-15T12:32:09.789Z,7.34
2017-12-15T12:34:36.027Z,7.28
2017-12-15T12:37:02.307Z,7.27
2017-12-15T12:39:28.544Z,7.32
2017-12-15T12:41:54.867Z,7.34
2017-12-15T12:44:21.942Z,7.27
2017-12-15T12:46:48.210Z,7.24
2017-12-15T12:49:14.432Z,7.14
2017-12-15T12:51:40.631Z,6.92
2017-12-15T12:54:06.871Z,7.04
2017-12-15T12:56:33.164Z,6.98
2017-12-15T12:58:59.406Z,6.95
2017-12-15T13:01:25.609Z,6.66
2017-12-15T13:03:51.774Z,6.60
2017-12-15T13:06:17.969Z,6.77
2017-12-15T13:08:44.259Z,7.00
2017-12-15T13:11:10.767Z,7.02
2017-12-15T13:13:37.023Z,7.00
2017-12-15T13:16:03.187Z,6.98
2017-12-15T13:18:29.304Z,6.80
2017-12-15T13:20:55.526Z,6.57
2017-12-15T13:23:22.015Z,6.44
2017-12-15T13:25:48.174Z,6.42
2017-12-15T13:28:15.224Z,6.58
2017-12-15T13:30:41.639Z,6.76
2017-12-15T13:33:07.765Z,6.99
2017-12-15T13:35:34.068Z,7.06
2017-12-15T13:38:00.207Z,6.95
2017-12-15T13:40:26.992Z,6.99
2017-12-15T13:42:53.198Z,6.81
2017-12-15T13:45:19.391Z,6.66
2017-12-15T13:47:45.558Z,6.54
2017-12-15T13:50:11.868Z,6.44
2017-12-15T13:52:37.962Z,6.53
2017-12-15T13:55:04.220Z,6.65
2017-12-15T13:57:30.366Z,6.72
2017-12-15T13:59:56.573Z,6.68
2017-12-15T14:02:22.732Z,6.91
2017-12-15T14:04:48.898Z,7.04
2017-12-15T14:07:15.262Z,7.27
2017-12-15T14:09:41.385Z,7.28
2017-12-15T14:12:07.550Z,7.35
2017-12-15T14:14:33.778Z,7.22
2017-12-15T14:17:00.484Z,7.11
2017-12-15T14:19:26.609Z,7.04
2017-12-15T14:21:53.272Z,6.88
2017-12-15T14:24:19.902Z,6.76
2017-12-15T14:26:46.373Z,6.67
2017-12-15T14:29:12.610Z,6.60
2017-12-15T14:31:38.957Z,6.55
2017-12-15T14:34:05.608Z,6.50
2017-12-15T14:36:32.419Z,6.47
2017-12-15T14:38:58.596Z,6.44
2017-12-15T14:41:24.675Z,6.35
2017-12-15T14:43:50.830Z,6.23
2017-12-15T14:46:17.076Z,6.05
2017-12-15T14:48:43.932Z,5.90
2017-12-15T14:51:10.447Z,5.92
2017-12-15T14:53:37.056Z,5.74
2017-12-15T14:56:03.244Z,5.74
2017-12-15T14:58:29.327Z,5.74
2017-12-15T15:00:55.584Z,5.71
2017-12-15T15:03:21.730Z,5.49
2017-12-15T15:05:47.821Z,5.20
2017-12-15T15:08:13.888Z,4.87
2017-12-15T15:10:40.085Z,4.68
2017-12-15T15:13:06.203Z,4.47
2017-12-15T15:15:32.608Z,4.29
2017-12-15T15:17:58.846Z,4.13
2017-12-15T15:20:25.106Z,4.01
2017-12-15T15:22:51.188Z,3.99
2017-12-15T15:25:17.318Z,3.95
2017-12-15T15:27:43.453Z,3.88
2017-12-15T15:30:09.754Z,3.81
2017-12-15T15:32:35.812Z,3.79
2017-12-15T15:35:02.114Z,3.78
2017-12-15T15:37:28.360Z,3.78
2017-12-15T15:39:54.589Z,3.80
2017-12-15T15:42:20.955Z,3.79
2017-12-15T15:44:47.294Z,3.78
2017-12-15T15:47:13.590Z,3.77
2017-12-15T15:49:39.882Z,3.75
2017-12-15T15:52:06.045Z,3.74
2017-12-15T15:54:32.252Z,3.73
2017-12-15T15:56:58.509Z,3.73
2017-12-15T15:59:24.826Z,3.71
2017-12-15T16:01:50.970Z,3.65
2017-12-15T16:04:17.193Z,3.59
2017-12-15T16:06:43.414Z,3.54
2017-12-15T16:09:09.621Z,3.47
2017-12-15T16:11:35.805Z,3.42
2017-12-15T16:14:02.077Z,3.37
2017-12-15T16:16:28.141Z,3.33
2017-12-15T16:18:54.231Z,3.30
2017-12-15T16:21:20.361Z,3.28
2017-12-15T16:23:46.491Z,3.26
2017-12-15T16:26:12.557Z,3.24
2017-12-15T16:28:38.709Z,3.21
2017-12-15T16:31:04.753Z,3.22
2017-12-15T16:33:31.203Z,3.28
2017-12-15T16:35:57.447Z,3.31
2017-12-15T16:38:23.736Z,3.28
2017-12-15T16:40:49.996Z,3.28
2017-12-15T16:43:16.210Z,3.35
2017-12-15T16:45:42.520Z,3.48
2017-12-15T16:48:08.718Z,3.56
2017-12-15T16:50:34.862Z,3.62
2017-12-15T16:53:01.242Z,3.63
2017-12-15T16:55:27.433Z,3.60
2017-12-15T16:57:53.679Z,3.59
2017-12-15T17:00:19.864Z,3.57
2017-12-15T17:02:45.994Z,3.54
2017-12-15T17:05:12.150Z,3.51
2017-12-15T17:07:38.374Z,3.46
2017-12-15T17:10:04.540Z,3.45
2017-12-15T17:12:30.712Z,3.44
2017-12-15T17:14:56.864Z,3.41
2017-12-15T17:17:22.959Z,3.41
2017-12-15T17:19:49.090Z,3.41
2017-12-15T17:22:15.271Z,3.41
2017-12-15T17:24:41.460Z,3.42
2017-12-15T17:27:07.602Z,3.52
2017-12-15T17:29:33.915Z,3.53
2017-12-15T17:32:00.099Z,3.50
2017-12-15T17:34:26.387Z,3.43
2017-12-15T17:36:52.626Z,3.32
2017-12-15T17:39:18.845Z,3.20
2017-12-15T17:41:44.931Z,3.10
2017-12-15T17:44:11.402Z,3.01
2017-12-15T17:46:37.618Z,2.93
2017-12-15T17:49:03.821Z,2.85
2017-12-15T17:51:30.463Z,2.79
2017-12-15T17:53:56.711Z,2.73
2017-12-15T17:56:22.797Z,2.68
2017-12-15T17:58:48.871Z,2.61
2017-12-15T18:01:14.969Z,2.56
2017-12-15T18:03:41.136Z,2.52
2017-12-15T18:06:07.300Z,2.47
2017-12-15T18:08:33.416Z,2.41
2017-12-15T18:10:59.479Z,2.37
2017-12-15T18:13:25.610Z,2.34
2017-12-15T18:15:51.731Z,2.32
2017-12-15T18:18:17.792Z,2.32
2017-12-15T18:20:44.028Z,2.31
2017-12-15T18:23:10.234Z,2.32
2017-12-15T18:25:36.473Z,2.31
2017-12-15T18:28:02.577Z,2.31
2017-12-15T18:30:28.676Z,2.30
2017-12-15T18:32:54.785Z,2.28
2017-12-15T18:35:20.918Z,2.25
2017-12-15T18:37:47.044Z,2.21
2017-12-15T18:40:13.627Z,2.19
2017-12-15T18:42:39.839Z,2.19
2017-12-15T18:45:06.050Z,2.19
2017-12-15T18:47:32.211Z,2.19
2017-12-15T18:49:58.433Z,2.18
2017-12-15T18:52:24.530Z,2.18
2017-12-15T18:54:50.699Z,2.17
2017-12-15T18:57:16.978Z,2.18
2017-12-15T18:59:43.063Z,2.22
2017-12-15T19:02:09.147Z,2.30
2017-12-15T19:04:35.547Z,2.33
2017-12-15T19:07:02.090Z,2.39
2017-12-15T19:09:28.537Z,2.40
2017-12-15T19:11:54.841Z,2.40
2017-12-15T19:14:20.969Z,2.39
2017-12-15T19:16:47.089Z,2.40
2017-12-15T19:19:13.377Z,2.40
2017-12-15T19:21:39.570Z,2.41
2017-12-15T19:24:05.793Z,2.37
2017-12-15T19:26:32.025Z,2.35
2017-12-15T19:28:58.195Z,2.30
2017-12-15T19:31:24.293Z,2.28
2017-12-15T19:33:50.460Z,2.27
2017-12-15T19:36:16.762Z,2.25
2017-12-15T19:38:42.938Z,2.20
2017-12-15T19:41:09.167Z,2.17
2017-12-15T19:43:35.330Z,2.12
2017-12-15T19:46:01.598Z,2.09
2017-12-15T19:48:27.747Z,2.07
2017-12-15T19:50:54.166Z,2.02
2017-12-15T19:53:21.293Z,2.01
2017-12-15T19:55:52.903Z,1.99
2017-12-15T19:58:19.898Z,1.98
2017-12-15T20:00:46.113Z,1.97
2017-12-15T20:03:12.795Z,1.95
2017-12-15T20:05:39.655Z,1.94
2017-12-15T20:08:06.825Z,1.93
2017-12-15T20:10:33.791Z,1.92
2017-12-15T20:13:00.224Z,1.90
2017-12-15T20:15:26.479Z,1.91
2017-12-15T20:17:52.693Z,1.92
2017-12-15T20:20:19.007Z,1.91
2017-12-15T20:22:45.627Z,1.92
2017-12-15T20:25:11.790Z,1.93
2017-12-15T20:27:38.010Z,1.94
2017-12-15T20:30:04.339Z,1.96
2017-12-15T20:32:30.978Z,2.00
2017-12-15T20:34:57.256Z,2.00
2017-12-15T20:37:23.337Z,2.00
2017-12-15T20:39:49.847Z,1.95
2017-12-15T20:42:16.092Z,1.91
2017-12-15T20:44:42.399Z,1.82
2017-12-15T20:47:08.584Z,1.74
2017-12-15T20:49:35.068Z,1.67
2017-12-15T20:52:01.337Z,1.61
2017-12-15T20:54:28.013Z,1.57
2017-12-15T20:56:54.223Z,1.54
2017-12-15T20:59:20.491Z,1.50
2017-12-15T21:01:46.808Z,1.49
2017-12-15T21:04:13.105Z,1.48
2017-12-15T21:06:39.278Z,1.46
2017-12-15T21:09:05.548Z,1.43
2017-12-15T21:11:31.726Z,1.41
2017-12-15T21:13:57.956Z,1.41
2017-12-15T21:16:24.233Z,1.42
2017-12-15T21:18:50.640Z,1.48
2017-12-15T21:21:16.976Z,1.53
2017-12-15T21:23:43.339Z,1.53
2017-12-15T21:26:09.641Z,1.52
2017-12-15T21:28:35.909Z,1.51
2017-12-15T21:31:02.175Z,1.51
2017-12-15T21:33:28.483Z,1.49
2017-12-15T21:35:54.837Z,1.51
2017-12-15T21:38:20.952Z,1.52
2017-12-15T21:40:47.106Z,1.51
2017-12-15T21:43:13.420Z,1.50
2017-12-15T21:45:39.841Z,1.48
2017-12-15T21:48:06.092Z,1.48
2017-12-15T21:50:32.231Z,1.46
2017-12-15T21:52:58.881Z,1.40
2017-12-15T21:55:25.223Z,1.29
2017-12-15T21:57:51.337Z,1.18
2017-12-15T22:00:17.539Z,1.09
2017-12-15T22:02:43.762Z,1.06
2017-12-15T22:05:10.135Z,1.17
2017-12-15T22:07:36.227Z,1.33
2017-12-15T22:10:02.697Z,1.47
2017-12-15T22:12:28.832Z,1.61
2017-12-15T22:14:55.170Z,1.83
2017-12-15T22:17:21.704Z,2.00
2017-12-15T22:19:49.768Z,2.19
2017-12-15T22:22:17.278Z,2.37
2017-12-15T22:24:43.461Z,2.55
2017-12-15T22:27:09.694Z,2.64
2017-12-15T22:29:35.935Z,2.69
2017-12-15T22:32:02.242Z,2.75
2017-12-15T22:34:28.555Z,2.81
2017-12-15T22:36:54.903Z,2.83
2017-12-15T22:39:21.062Z,2.82
2017-12-15T22:41:47.365Z,2.79
2017-12-15T22:44:13.706Z,2.75
2017-12-15T22:46:40.096Z,2.70
2017-12-15T22:49:06.498Z,2.68
2017-12-15T22:51:32.942Z,2.68
2017-12-15T22:53:59.229Z,2.68
2017-12-15T22:56:25.459Z,2.63
2017-12-15T22:58:51.560Z,2.56
2017-12-15T23:01:17.664Z,2.43
2017-12-15T23:03:43.757Z,2.27
2017-12-15T23:06:09.852Z,2.08
2017-12-15T23:08:35.923Z,1.90
2017-12-15T23:11:02.153Z,1.75
2017-12-15T23:13:28.290Z,1.62
2017-12-15T23:15:54.527Z,1.53
2017-12-15T23:18:20.709Z,1.44
2017-12-15T23:20:46.840Z,1.39
2017-12-15T23:23:12.978Z,1.35
2017-12-15T23:25:39.210Z,1.29
2017-12-15T23:28:05.347Z,1.22
2017-12-15T23:30:31.684Z,1.16
2017-12-15T23:32:57.912Z,1.09
2017-12-15T23:35:24.150Z,1.02
2017-12-15T23:37:50.262Z,0.96
2017-12-15T23:40:16.508Z,0.90
2017-12-15T23:42:42.717Z,0.85
2017-12-15T23:45:08.884Z,0.79
2017-12-15T23:47:34.988Z,0.75
2017-12-15T23:50:01.181Z,0.78
2017-12-15T23:52:27.370Z,0.79
2017-12-15T23:55:05.598Z,0.83
2017-12-15T23:57:31.796Z,0.86
2017-12-15T23:59:58.106Z,0.92
